createdAt,value
2023-01-19T05:06:22.737Z,3.27
2023-01-19T06:21:21.975Z,3.15
2023-01-19T06:22:21.992Z,3.14
2023-01-19T06:23:21.952Z,3.15
2023-01-19T06:24:21.949Z,3.03
2023-01-19T06:25:21.944Z,3.04
2023-01-19T06:29:21.890Z,3.04
2023-01-19T06:30:21.882Z,2.99
2023-01-19T06:31:21.943Z,3.00
2023-01-19T06:34:21.840Z,2.97
2023-01-19T06:35:21.829Z,3.00
2023-01-19T06:36:21.820Z,3.04
2023-01-19T06:37:21.813Z,3.10
2023-01-19T06:38:21.835Z,3.10
2023-01-19T06:39:21.790Z,3.01
2023-01-19T06:40:21.785Z,3.06
2023-01-19T06:41:21.769Z,3.04
2023-01-19T06:42:21.783Z,2.92
2023-01-19T06:43:21.751Z,3.10
2023-01-19T06:44:21.742Z,3.01
2023-01-19T06:45:21.736Z,3.09
2023-01-19T06:46:21.721Z,3.10
2023-01-19T06:47:21.713Z,2.99
2023-01-19T06:48:21.706Z,2.89
2023-01-19T06:49:21.689Z,3.04
2023-01-19T06:50:21.679Z,2.99
2023-01-19T06:51:21.676Z,2.96
2023-01-19T06:52:21.662Z,2.97
2023-01-19T06:53:21.652Z,3.06
2023-01-19T06:54:21.664Z,3.06
2023-01-19T06:55:21.627Z,2.91
2023-01-19T06:56:21.618Z,2.81
2023-01-19T06:57:21.611Z,2.94
2023-01-19T06:58:21.602Z,2.76
2023-01-19T06:59:21.588Z,2.70
2023-01-19T07:00:21.580Z,2.59
2023-01-19T07:01:21.769Z,2.49
2023-01-19T07:02:27.891Z,2.70
2023-01-19T07:03:22.679Z,2.68
2023-01-19T07:04:21.535Z,2.56
2023-01-19T07:05:21.532Z,2.73
2023-01-19T07:06:21.516Z,2.57
2023-01-19T07:07:21.509Z,2.56
2023-01-19T07:08:21.493Z,2.63
2023-01-19T07:09:21.483Z,2.62
2023-01-19T07:10:21.518Z,2.66
2023-01-19T07:11:30.445Z,2.52
2023-01-19T07:12:22.497Z,2.70
2023-01-19T07:13:21.456Z,2.59
2023-01-19T07:14:21.435Z,2.60
2023-01-19T07:15:21.428Z,2.64
2023-01-19T07:16:21.489Z,2.63
2023-01-19T07:17:21.421Z,2.56
2023-01-19T07:18:21.396Z,2.59
2023-01-19T07:19:21.387Z,2.56
2023-01-19T07:20:21.377Z,2.78
2023-01-19T07:21:21.380Z,2.79
2023-01-19T07:22:21.354Z,2.68
2023-01-19T07:23:21.340Z,2.76
2023-01-19T07:24:21.329Z,2.74
2023-01-19T07:25:21.319Z,2.73
2023-01-19T07:26:21.722Z,2.79
2023-01-19T07:27:21.304Z,2.63
2023-01-19T07:28:21.290Z,2.68
2023-01-19T07:29:21.280Z,2.66
2023-01-19T07:30:21.269Z,2.64
2023-01-19T07:31:21.414Z,2.38
2023-01-19T07:32:21.255Z,2.59
2023-01-19T07:33:21.242Z,2.60
2023-01-19T07:34:21.234Z,2.60
2023-01-19T07:35:21.218Z,2.56
2023-01-19T07:36:21.215Z,2.57
2023-01-19T07:37:21.197Z,2.59
2023-01-19T07:38:21.188Z,2.56
2023-01-19T07:39:21.181Z,2.52
2023-01-19T07:40:23.323Z,2.52
2023-01-19T07:41:21.157Z,2.45
2023-01-19T07:42:21.235Z,2.44
2023-01-19T07:43:21.136Z,2.64
2023-01-19T07:44:21.129Z,2.52
2023-01-19T07:45:21.135Z,2.49
2023-01-19T07:46:21.164Z,2.49
2023-01-19T07:47:21.108Z,2.46
2023-01-19T07:48:21.090Z,2.48
2023-01-19T07:49:21.079Z,2.49
2023-01-19T07:50:21.069Z,2.57
2023-01-19T07:51:21.054Z,2.56
2023-01-19T07:52:21.049Z,2.57
2023-01-19T07:53:21.038Z,2.64
2023-01-19T07:54:21.028Z,2.56
2023-01-19T07:55:21.017Z,2.76
2023-01-19T07:56:21.011Z,2.76
2023-01-19T07:57:21.001Z,2.88
2023-01-19T07:58:21.016Z,2.89
2023-01-19T07:59:20.976Z,2.81
2023-01-19T08:00:20.965Z,2.85
2023-01-19T08:01:21.043Z,2.66
2023-01-19T08:02:21.050Z,2.96
2023-01-19T08:03:20.936Z,2.91
2023-01-19T08:04:20.938Z,2.89
2023-01-19T08:05:20.919Z,2.82
2023-01-19T08:06:20.903Z,3.01
2023-01-19T08:07:20.891Z,3.00
2023-01-19T08:08:20.897Z,2.94
2023-01-19T08:09:20.872Z,2.86
2023-01-19T08:10:20.864Z,2.92
2023-01-19T08:11:20.854Z,3.03
2023-01-19T08:12:20.841Z,2.88
2023-01-19T08:13:20.837Z,2.92
2023-01-19T08:14:20.887Z,2.94
2023-01-19T08:15:20.809Z,3.10
2023-01-19T08:16:20.808Z,3.06
2023-01-19T08:17:20.793Z,3.04
2023-01-19T08:18:20.794Z,3.06
2023-01-19T08:19:20.783Z,3.01
2023-01-19T08:20:20.759Z,3.00
2023-01-19T08:21:20.765Z,2.96
2023-01-19T08:22:20.740Z,3.00
2023-01-19T08:23:20.733Z,2.91
2023-01-19T08:24:20.760Z,2.96
2023-01-19T08:25:20.712Z,3.03
2023-01-19T08:26:20.706Z,2.88
2023-01-19T08:27:20.687Z,2.79
2023-01-19T08:28:20.676Z,2.89
2023-01-19T08:29:20.667Z,2.83
2023-01-19T08:30:20.681Z,2.85
2023-01-19T08:31:24.355Z,2.89
2023-01-19T08:32:20.753Z,2.85
2023-01-19T08:33:20.627Z,2.89
2023-01-19T08:34:20.618Z,2.88
2023-01-19T08:35:20.611Z,2.83
2023-01-19T08:36:20.597Z,2.79
2023-01-19T08:37:20.598Z,2.89
2023-01-19T08:38:20.575Z,2.86
2023-01-19T08:39:20.570Z,2.88
2023-01-19T08:40:20.556Z,2.83
2023-01-19T08:41:20.547Z,2.71
2023-01-19T08:42:20.537Z,2.64
2023-01-19T08:43:20.525Z,2.51
2023-01-19T08:44:20.520Z,2.46
2023-01-19T08:45:20.513Z,2.52
2023-01-19T08:46:20.576Z,2.41
2023-01-19T08:47:20.535Z,2.39
2023-01-19T08:48:20.473Z,2.31
2023-01-19T08:49:20.469Z,2.36
2023-01-19T08:50:20.454Z,2.42
2023-01-19T08:51:20.455Z,2.27
2023-01-19T08:52:20.434Z,2.51
2023-01-19T08:53:20.427Z,2.30
2023-01-19T08:54:20.416Z,2.48
2023-01-19T08:55:20.409Z,2.26
2023-01-19T08:56:20.759Z,2.41
2023-01-19T08:57:20.381Z,2.28
2023-01-19T08:58:20.372Z,2.23
2023-01-19T08:59:20.358Z,2.21
2023-01-19T09:00:20.365Z,2.20
2023-01-19T09:01:20.458Z,2.20
2023-01-19T09:02:20.620Z,2.31
2023-01-19T09:03:20.365Z,2.28
2023-01-19T09:04:20.311Z,2.27
2023-01-19T09:05:20.309Z,2.23
2023-01-19T09:06:20.292Z,2.09
2023-01-19T09:07:20.303Z,2.12
2023-01-19T09:08:20.318Z,2.19
2023-01-19T09:09:20.257Z,2.13
2023-01-19T09:10:20.247Z,2.12
2023-01-19T09:11:20.243Z,2.05
2023-01-19T09:12:20.231Z,2.09
2023-01-19T09:13:20.225Z,2.02
2023-01-19T09:14:20.209Z,2.03
2023-01-19T09:15:20.199Z,1.84
2023-01-19T09:16:20.216Z,1.74
2023-01-19T09:17:20.179Z,1.66
2023-01-19T09:18:20.193Z,1.45
2023-01-19T09:19:20.155Z,1.34
2023-01-19T09:20:20.148Z,1.15
2023-01-19T09:21:20.139Z,1.19
2023-01-19T09:22:20.128Z,1.21
2023-01-19T09:23:20.181Z,1.08
2023-01-19T09:24:20.106Z,1.18
2023-01-19T09:25:20.102Z,0.96
2023-01-19T09:26:20.085Z,1.07
2023-01-19T09:27:20.080Z,0.90
2023-01-19T09:28:20.068Z,0.85
2023-01-19T09:29:20.052Z,1.04
2023-01-19T09:30:20.045Z,0.97
2023-01-19T09:31:20.332Z,0.97
2023-01-19T09:32:20.028Z,0.81
2023-01-19T09:33:20.020Z,0.79
2023-01-19T09:34:20.044Z,0.87
2023-01-19T09:35:19.991Z,0.81
2023-01-19T09:36:20.010Z,0.76
2023-01-19T09:37:19.976Z,0.61
2023-01-19T09:38:19.967Z,0.63
2023-01-19T09:39:19.955Z,0.60
2023-01-19T09:40:19.943Z,0.69
2023-01-19T09:41:19.933Z,0.67
2023-01-19T09:42:19.921Z,0.71
2023-01-19T09:43:19.916Z,0.63
2023-01-19T09:44:19.932Z,0.58
2023-01-19T09:45:19.900Z,0.65
2023-01-19T09:46:19.900Z,0.61
2023-01-19T09:47:19.868Z,0.60
2023-01-19T09:48:19.861Z,0.60
2023-01-19T09:49:19.861Z,0.65
2023-01-19T09:50:19.930Z,0.73
2023-01-19T09:51:19.833Z,0.67
2023-01-19T09:52:19.823Z,0.63
2023-01-19T09:53:19.808Z,0.73
2023-01-19T09:54:19.850Z,0.75
2023-01-19T09:55:19.787Z,0.73
2023-01-19T09:56:19.777Z,0.76
2023-01-19T09:57:19.764Z,0.76
2023-01-19T09:58:19.788Z,0.81
2023-01-19T09:59:19.746Z,0.75
2023-01-19T10:00:19.785Z,0.72
2023-01-19T10:01:19.839Z,0.71
2023-01-19T10:02:19.731Z,0.85
2023-01-19T10:03:19.733Z,0.85
2023-01-19T10:04:19.696Z,0.79
2023-01-19T10:05:19.682Z,0.82
2023-01-19T10:06:19.691Z,0.76
2023-01-19T10:07:19.671Z,0.65
2023-01-19T10:08:19.653Z,0.67
2023-01-19T10:09:19.641Z,0.69
2023-01-19T10:10:19.705Z,0.53
2023-01-19T10:11:19.625Z,0.72
2023-01-19T10:12:19.962Z,0.73
2023-01-19T10:13:19.603Z,0.76
2023-01-19T10:14:19.600Z,0.82
2023-01-19T10:15:19.581Z,0.85
2023-01-19T10:16:19.629Z,0.93
2023-01-19T10:17:19.564Z,0.93
2023-01-19T10:18:19.560Z,0.93
2023-01-19T10:19:19.540Z,1.04
2023-01-19T10:20:19.564Z,1.11
2023-01-19T10:21:19.517Z,1.07
2023-01-19T10:22:19.590Z,1.21
2023-01-19T10:23:19.498Z,1.08
2023-01-19T10:24:19.510Z,1.22
2023-01-19T10:25:19.613Z,1.36
2023-01-19T10:26:19.479Z,1.40
2023-01-19T10:27:19.484Z,1.44
2023-01-19T10:28:19.452Z,1.36
2023-01-19T10:29:19.439Z,1.36
2023-01-19T10:30:19.523Z,1.30
2023-01-19T10:31:19.596Z,1.33
2023-01-19T10:32:19.409Z,1.36
2023-01-19T10:33:19.396Z,1.47
2023-01-19T10:34:23.011Z,1.55
2023-01-19T10:35:19.376Z,1.56
2023-01-19T10:36:19.368Z,1.73
2023-01-19T10:37:19.354Z,1.65
2023-01-19T10:38:19.372Z,1.70
2023-01-19T10:39:19.329Z,1.81
2023-01-19T10:40:19.439Z,1.74
2023-01-19T10:41:19.308Z,1.77
2023-01-19T10:42:19.300Z,1.56
2023-01-19T10:43:19.289Z,1.72
2023-01-19T10:44:19.289Z,1.81
2023-01-19T10:45:19.314Z,1.74
2023-01-19T10:46:19.309Z,1.67
2023-01-19T10:47:19.283Z,1.67
2023-01-19T10:48:19.242Z,1.66
2023-01-19T10:49:19.236Z,1.63
2023-01-19T10:50:19.346Z,1.58
2023-01-19T10:51:19.247Z,1.66
2023-01-19T10:52:19.196Z,1.40
2023-01-19T10:53:19.201Z,1.52
2023-01-19T10:54:19.210Z,1.38
2023-01-19T10:55:19.197Z,1.19
2023-01-19T10:56:19.190Z,1.01
2023-01-19T10:57:19.205Z,1.04
2023-01-19T10:58:19.134Z,0.91
2023-01-19T10:59:19.118Z,0.94
2023-01-19T11:00:19.168Z,1.08
2023-01-19T11:01:19.257Z,0.85
2023-01-19T11:02:19.338Z,1.00
2023-01-19T11:03:19.160Z,0.96
2023-01-19T11:04:19.106Z,0.97
2023-01-19T11:05:19.062Z,0.99
2023-01-19T11:06:19.053Z,0.96
2023-01-19T11:07:19.040Z,1.00
2023-01-19T11:08:19.072Z,0.90
2023-01-19T11:09:19.017Z,0.79
2023-01-19T11:10:19.043Z,0.89
2023-01-19T11:11:18.997Z,0.90
2023-01-19T11:12:18.988Z,0.90
2023-01-19T11:13:18.972Z,0.57
2023-01-19T11:14:18.977Z,0.53
2023-01-19T11:15:18.955Z,0.75
2023-01-19T11:16:18.965Z,0.85
2023-01-19T11:17:18.929Z,0.89
2023-01-19T11:18:18.919Z,0.71
2023-01-19T11:19:18.912Z,0.72
2023-01-19T11:20:18.898Z,0.78
2023-01-19T11:21:18.893Z,0.81
2023-01-19T11:22:18.883Z,0.69
2023-01-19T11:23:18.870Z,0.71
2023-01-19T11:24:18.879Z,0.61
2023-01-19T11:25:18.848Z,0.76
2023-01-19T11:26:18.885Z,0.73
2023-01-19T11:27:18.827Z,0.60
2023-01-19T11:28:18.819Z,0.63
2023-01-19T11:29:18.808Z,0.60
2023-01-19T11:30:18.802Z,0.61
2023-01-19T11:31:19.017Z,0.54
2023-01-19T11:32:18.775Z,0.43
2023-01-19T11:33:18.766Z,0.42
2023-01-19T11:34:18.757Z,0.65
2023-01-19T11:35:18.743Z,0.57
2023-01-19T11:36:18.748Z,0.57
2023-01-19T11:37:18.731Z,0.64
2023-01-19T11:38:18.710Z,0.73
2023-01-19T11:39:18.702Z,0.69
2023-01-19T11:40:18.750Z,0.61
2023-01-19T11:41:18.715Z,0.64
2023-01-19T11:42:18.704Z,0.72
2023-01-19T11:43:18.664Z,0.54
2023-01-19T11:44:18.649Z,0.50
2023-01-19T11:45:18.653Z,0.47
2023-01-19T11:46:18.638Z,0.37
2023-01-19T11:47:18.628Z,0.29
2023-01-19T11:48:18.612Z,0.42
2023-01-19T11:49:18.605Z,0.42
2023-01-19T11:50:18.594Z,0.40
2023-01-19T11:51:18.595Z,0.53
2023-01-19T11:52:18.575Z,0.50
2023-01-19T11:53:18.560Z,0.57
2023-01-19T11:54:18.580Z,0.61
2023-01-19T11:55:18.549Z,0.64
2023-01-19T11:56:18.533Z,0.60
2023-01-19T11:57:18.521Z,0.76
2023-01-19T11:58:18.575Z,0.82
2023-01-19T11:59:18.503Z,0.78
2023-01-19T12:00:18.505Z,0.91
2023-01-19T12:01:18.497Z,1.01
2023-01-19T12:02:18.509Z,0.83
2023-01-19T12:03:18.542Z,1.04
2023-01-19T12:04:18.455Z,1.04
2023-01-19T12:05:18.440Z,1.14
2023-01-19T12:06:18.432Z,1.07
2023-01-19T12:07:18.447Z,1.19
2023-01-19T12:08:18.411Z,1.17
2023-01-19T12:09:18.397Z,1.12
2023-01-19T12:10:18.387Z,1.14
2023-01-19T12:11:18.377Z,1.17
2023-01-19T12:12:18.366Z,1.31
2023-01-19T12:13:18.357Z,1.34
2023-01-19T12:14:18.375Z,1.34
2023-01-19T12:15:18.359Z,1.40
2023-01-19T12:16:18.445Z,1.52
2023-01-19T12:17:18.320Z,1.61
2023-01-19T12:18:18.421Z,1.70
2023-01-19T12:19:18.314Z,1.67
2023-01-19T12:20:18.287Z,1.72
2023-01-19T12:21:18.274Z,1.73
2023-01-19T12:22:18.279Z,1.70
2023-01-19T12:23:18.252Z,1.94
2023-01-19T12:24:18.327Z,1.81
2023-01-19T12:25:18.245Z,1.87
2023-01-19T12:26:18.221Z,1.88
2023-01-19T12:27:18.218Z,2.08
2023-01-19T12:28:18.199Z,2.12
2023-01-19T12:29:18.189Z,2.10
2023-01-19T12:30:18.206Z,2.19
2023-01-19T12:31:18.393Z,2.15
2023-01-19T12:32:18.175Z,2.09
2023-01-19T12:33:18.149Z,2.24
2023-01-19T12:34:18.134Z,2.36
2023-01-19T12:35:18.128Z,2.38
2023-01-19T12:36:18.185Z,2.39
2023-01-19T12:37:18.105Z,2.46
2023-01-19T12:38:18.098Z,2.44
2023-01-19T12:39:18.088Z,2.48
2023-01-19T12:40:18.092Z,2.41
2023-01-19T12:41:18.067Z,2.49
2023-01-19T12:42:20.456Z,2.57
2023-01-19T12:43:18.045Z,2.59
2023-01-19T12:44:18.033Z,2.49
2023-01-19T12:45:18.028Z,2.74
2023-01-19T12:46:18.105Z,2.71
2023-01-19T12:47:18.007Z,2.81
2023-01-19T12:48:18.013Z,2.88
2023-01-19T12:49:17.989Z,2.68
2023-01-19T12:50:17.993Z,2.88
2023-01-19T12:51:17.964Z,2.76
2023-01-19T12:52:17.951Z,2.91
2023-01-19T12:53:17.950Z,2.79
2023-01-19T12:54:19.904Z,2.91
2023-01-19T12:55:17.921Z,2.96
2023-01-19T12:56:17.966Z,3.01
2023-01-19T12:57:17.899Z,2.92
2023-01-19T12:58:17.894Z,2.92
2023-01-19T12:59:17.881Z,3.10
2023-01-19T13:00:19.847Z,3.07
2023-01-19T13:01:17.948Z,3.07
2023-01-19T13:02:17.994Z,3.22
2023-01-19T13:03:17.838Z,3.14
2023-01-19T13:04:17.828Z,3.17
2023-01-19T13:05:17.818Z,3.18
2023-01-19T13:06:17.805Z,3.15
2023-01-19T13:07:17.801Z,3.19
2023-01-19T13:08:17.790Z,3.40
2023-01-19T13:09:17.775Z,3.33
2023-01-19T13:10:17.768Z,3.37
2023-01-19T13:11:17.757Z,3.35
2023-01-19T13:12:17.747Z,3.40
2023-01-19T13:13:17.741Z,3.36
2023-01-19T13:14:17.727Z,3.40
2023-01-19T13:15:17.713Z,3.45
2023-01-19T13:16:17.770Z,3.33
2023-01-19T13:17:17.693Z,3.40
2023-01-19T13:18:17.714Z,3.35
2023-01-19T13:19:17.691Z,3.39
2023-01-19T13:20:17.675Z,3.37
2023-01-19T13:21:17.654Z,3.35
2023-01-19T13:22:17.646Z,3.39
2023-01-19T13:23:17.639Z,3.27
2023-01-19T13:24:17.636Z,3.45
2023-01-19T13:25:17.614Z,3.33
2023-01-19T13:26:17.638Z,3.37
2023-01-19T13:27:17.590Z,3.32
2023-01-19T13:28:17.584Z,3.36
2023-01-19T13:29:17.580Z,3.51
2023-01-19T13:30:17.718Z,3.46
2023-01-19T13:31:17.696Z,3.45
2023-01-19T13:32:17.561Z,3.39
2023-01-19T13:33:17.533Z,3.47
2023-01-19T13:34:17.547Z,3.46
2023-01-19T13:35:17.517Z,3.50
2023-01-19T13:36:17.497Z,3.55
2023-01-19T13:37:17.489Z,3.54
2023-01-19T13:38:17.477Z,3.57
2023-01-19T13:39:18.635Z,3.54
2023-01-19T13:40:17.460Z,3.65
2023-01-19T13:41:17.451Z,3.63
2023-01-19T13:42:17.437Z,3.73
2023-01-19T13:43:17.431Z,3.78
2023-01-19T13:44:17.419Z,3.78
2023-01-19T13:45:17.410Z,3.93
2023-01-19T13:46:17.443Z,3.89
2023-01-19T13:47:17.390Z,3.94
2023-01-19T13:48:17.377Z,3.87
2023-01-19T13:49:17.367Z,3.79
2023-01-19T13:50:17.416Z,3.90
2023-01-19T13:51:17.353Z,3.96
2023-01-19T13:52:17.338Z,3.94
2023-01-19T13:53:17.326Z,3.97
2023-01-19T13:54:17.356Z,4.00
2023-01-19T13:55:17.338Z,4.12
2023-01-19T13:56:17.296Z,4.07
2023-01-19T13:57:17.311Z,4.08
2023-01-19T13:58:17.277Z,4.00
2023-01-19T13:59:17.290Z,3.91
2023-01-19T14:00:17.252Z,3.87
2023-01-19T14:01:17.717Z,3.89
2023-01-19T14:02:17.277Z,3.94
2023-01-19T14:03:17.289Z,3.79
2023-01-19T14:04:17.213Z,3.89
2023-01-19T14:05:17.204Z,3.87
2023-01-19T14:06:17.338Z,3.79
2023-01-19T14:07:17.233Z,3.83
2023-01-19T14:08:17.169Z,3.81
2023-01-19T14:09:17.177Z,3.82
2023-01-19T14:10:17.155Z,3.81
2023-01-19T14:11:17.143Z,3.82
2023-01-19T14:12:17.201Z,3.90
2023-01-19T14:13:17.124Z,3.90
2023-01-19T14:14:17.112Z,3.87
2023-01-19T14:15:17.099Z,3.94
2023-01-19T14:16:17.175Z,3.99
2023-01-19T14:17:17.079Z,4.04
2023-01-19T14:18:17.083Z,3.87
2023-01-19T14:19:17.060Z,3.87
2023-01-19T14:20:17.052Z,4.04
2023-01-19T14:21:17.036Z,3.91
2023-01-19T14:22:17.061Z,3.90
2023-01-19T14:23:17.018Z,3.94
2023-01-19T14:24:17.167Z,3.89
2023-01-19T14:25:17.023Z,3.96
2023-01-19T14:26:17.015Z,3.94
2023-01-19T14:27:17.002Z,3.85
2023-01-19T14:28:16.985Z,3.90
2023-01-19T14:29:16.997Z,3.97
2023-01-19T14:30:16.948Z,3.91
2023-01-19T14:31:17.003Z,3.91
2023-01-19T14:32:16.933Z,3.78
2023-01-19T14:33:16.911Z,3.76
2023-01-19T14:34:16.904Z,3.63
2023-01-19T14:35:16.892Z,3.73
2023-01-19T14:36:17.987Z,3.87
2023-01-19T14:37:16.883Z,3.76
2023-01-19T14:38:16.931Z,3.79
2023-01-19T14:39:16.850Z,3.83
2023-01-19T14:40:16.844Z,3.67
2023-01-19T14:41:16.847Z,3.75
2023-01-19T14:42:17.599Z,3.60
2023-01-19T14:43:16.812Z,3.54
2023-01-19T14:44:16.797Z,3.45
2023-01-19T14:45:16.793Z,3.54
2023-01-19T14:46:16.835Z,3.63
2023-01-19T14:47:16.771Z,3.71
2023-01-19T14:48:18.064Z,3.61
2023-01-19T14:49:16.754Z,3.53
2023-01-19T14:50:16.739Z,3.65
2023-01-19T14:51:16.727Z,3.60
2023-01-19T14:52:16.721Z,3.61
2023-01-19T14:53:16.708Z,3.67
2023-01-19T14:54:16.722Z,3.64
2023-01-19T14:55:16.693Z,3.55
2023-01-19T14:56:16.675Z,3.61
2023-01-19T14:57:16.669Z,3.65
2023-01-19T14:58:16.652Z,3.60
2023-01-19T14:59:16.645Z,3.65
2023-01-19T15:00:17.465Z,3.58
2023-01-19T15:01:16.715Z,3.58
2023-01-19T15:02:16.643Z,3.65
2023-01-19T15:03:16.609Z,3.50
2023-01-19T15:04:16.597Z,3.50
2023-01-19T15:05:16.585Z,3.46
2023-01-19T15:06:16.585Z,3.54
2023-01-19T15:07:16.562Z,3.47
2023-01-19T15:08:16.558Z,3.51
2023-01-19T15:09:16.553Z,3.55
2023-01-19T15:10:16.558Z,3.50
2023-01-19T15:11:16.536Z,3.51
2023-01-19T15:12:17.461Z,3.54
2023-01-19T15:13:16.506Z,3.54
2023-01-19T15:14:16.493Z,3.54
2023-01-19T15:15:16.500Z,3.46
2023-01-19T15:16:16.514Z,3.53
2023-01-19T15:17:16.463Z,3.58
2023-01-19T15:18:16.454Z,3.51
2023-01-19T15:19:16.451Z,3.43
2023-01-19T15:20:16.435Z,3.36
2023-01-19T15:21:16.425Z,3.47
2023-01-19T15:22:16.411Z,3.54
2023-01-19T15:23:16.401Z,3.42
2023-01-19T15:24:17.990Z,3.50
2023-01-19T15:25:16.381Z,3.54
2023-01-19T15:26:16.409Z,3.47
2023-01-19T15:27:16.364Z,3.37
2023-01-19T15:28:16.353Z,3.36
2023-01-19T15:29:16.336Z,3.46
2023-01-19T15:30:16.438Z,3.28
2023-01-19T15:31:16.391Z,3.40
2023-01-19T15:32:16.306Z,3.42
2023-01-19T15:33:16.298Z,3.43
2023-01-19T15:34:16.291Z,3.42
2023-01-19T15:35:16.278Z,3.24
2023-01-19T15:36:17.919Z,3.29
2023-01-19T15:37:16.266Z,3.25
2023-01-19T15:38:16.247Z,3.28
2023-01-19T15:39:16.241Z,3.37
2023-01-19T15:40:16.222Z,3.24
2023-01-19T15:41:16.214Z,3.35
2023-01-19T15:42:16.233Z,3.40
2023-01-19T15:43:16.197Z,3.37
2023-01-19T15:44:16.190Z,3.65
2023-01-19T15:45:16.174Z,3.46
2023-01-19T15:46:16.162Z,3.75
2023-01-19T15:47:16.159Z,3.93
2023-01-19T15:48:16.156Z,4.37
2023-01-19T15:49:16.134Z,4.70
2023-01-19T15:50:16.135Z,5.21
2023-01-19T15:51:16.116Z,5.64
2023-01-19T15:52:17.151Z,6.00
2023-01-19T15:53:16.109Z,6.22
2023-01-19T15:54:16.080Z,6.28
2023-01-19T15:55:16.088Z,6.13
2023-01-19T15:56:16.059Z,6.10
2023-01-19T15:57:16.050Z,6.37
2023-01-19T15:58:16.059Z,6.26
2023-01-19T15:59:16.026Z,6.29
2023-01-19T16:00:16.022Z,6.34
2023-01-19T16:01:16.157Z,6.51
2023-01-19T16:02:16.256Z,6.54
2023-01-19T16:03:15.987Z,6.37
2023-01-19T16:04:17.948Z,5.92
2023-01-19T16:05:15.972Z,5.53
2023-01-19T16:06:15.963Z,5.24
2023-01-19T16:07:15.962Z,4.97
2023-01-19T16:08:15.935Z,4.76
2023-01-19T16:09:15.927Z,4.61
2023-01-19T16:10:15.913Z,4.49
2023-01-19T16:11:15.905Z,4.37
2023-01-19T16:12:15.896Z,4.41
2023-01-19T16:13:15.879Z,4.37
2023-01-19T16:14:17.496Z,4.26
2023-01-19T16:15:15.860Z,4.10
2023-01-19T16:16:15.939Z,4.00
2023-01-19T16:17:15.837Z,3.71
2023-01-19T16:18:15.836Z,3.50
2023-01-19T16:19:15.833Z,3.37
2023-01-19T16:20:16.253Z,3.37
2023-01-19T16:21:15.796Z,3.32
2023-01-19T16:22:15.790Z,3.28
2023-01-19T16:23:16.083Z,3.17
2023-01-19T16:24:15.768Z,3.04
2023-01-19T16:25:15.760Z,3.10
2023-01-19T16:26:17.564Z,2.85
2023-01-19T16:27:15.742Z,2.92
2023-01-19T16:28:15.723Z,2.71
2023-01-19T16:29:15.729Z,2.66
2023-01-19T16:30:15.738Z,2.54
2023-01-19T16:31:15.796Z,2.44
2023-01-19T16:32:16.993Z,2.45
2023-01-19T16:33:15.672Z,2.33
2023-01-19T16:34:15.666Z,2.31
2023-01-19T16:35:15.659Z,2.24
2023-01-19T16:36:15.663Z,2.16
2023-01-19T16:37:15.631Z,2.28
2023-01-19T16:38:15.624Z,2.08
2023-01-19T16:39:15.620Z,2.09
2023-01-19T16:40:15.599Z,2.01
2023-01-19T16:41:15.592Z,2.02
2023-01-19T16:42:15.584Z,1.94
2023-01-19T16:43:15.571Z,1.90
2023-01-19T16:44:15.559Z,1.95
2023-01-19T16:45:15.548Z,1.81
2023-01-19T16:46:15.612Z,1.87
2023-01-19T16:47:15.527Z,2.03
2023-01-19T16:48:15.517Z,1.77
2023-01-19T16:49:15.505Z,1.76
2023-01-19T16:55:15.446Z,1.63
2023-01-19T16:56:15.435Z,1.56
2023-01-19T17:03:15.367Z,1.40
2023-01-19T17:04:15.356Z,1.28
2023-01-19T17:05:15.349Z,1.36
2023-01-19T17:06:15.361Z,1.44
2023-01-19T17:07:16.166Z,1.37
2023-01-19T17:08:15.313Z,1.37
2023-01-19T17:46:15.058Z,1.56
2023-01-19T21:58:12.305Z,0.47
